Time,TemperatureF,DewpointF,PressureIn,WindDirection,WindDirectionDegrees,WindSpeedMPH,WindSpeedGustMPH,Humidity,HourlyPrecipIn,Conditions,Clouds,dailyrainin,SoftwareType,DateUTC
2013-12-04 00:11:00,52.5,51.0,29.94,WSW,244,0.0,1.0,95,0.01,,,0.00,weatherlink.com 1.10,2013-12-04 05:11:00,
2013-12-04 00:27:00,52.5,51.0,29.94,WSW,244,0.0,0.0,95,0.02,,,0.01,weatherlink.com 1.10,2013-12-04 05:27:00,
2013-12-04 00:42:00,52.5,51.0,29.93,WSW,244,0.0,0.0,95,0.03,,,0.02,weatherlink.com 1.10,2013-12-04 05:42:00,
2013-12-04 00:57:00,52.4,51.0,29.93,WSW,244,0.0,1.0,95,0.04,,,0.04,weatherlink.com 1.10,2013-12-04 05:57:00,
2013-12-04 01:12:00,52.4,51.0,29.94,WSW,244,0.0,1.0,95,0.05,,,0.05,weatherlink.com 1.10,2013-12-04 06:12:00,
2013-12-04 01:27:00,52.4,51.0,29.95,WSW,244,1.0,1.0,95,0.04,,,0.05,weatherlink.com 1.10,2013-12-04 06:27:00,
2013-12-04 01:42:00,52.5,51.0,29.95,WSW,244,0.0,1.0,95,0.03,,,0.05,weatherlink.com 1.10,2013-12-04 06:42:00,
2013-12-04 01:57:00,52.5,51.0,29.95,WSW,244,0.0,0.0,95,0.01,,,0.05,weatherlink.com 1.10,2013-12-04 06:57:00,
2013-12-04 02:12:00,52.5,51.0,29.96,WSW,244,0.0,0.0,95,0.00,,,0.05,weatherlink.com 1.10,2013-12-04 07:12:00,
2013-12-04 02:27:00,52.5,51.0,29.97,WSW,244,0.0,0.0,95,0.00,,,0.05,weatherlink.com 1.10,2013-12-04 07:27:00,
2013-12-04 02:42:00,52.6,51.0,29.97,WSW,244,0.0,0.0,95,0.01,,,0.06,weatherlink.com 1.10,2013-12-04 07:42:00,
2013-12-04 02:57:00,52.5,51.0,29.96,WSW,244,0.0,0.0,94,0.01,,,0.06,weatherlink.com 1.10,2013-12-04 07:57:00,
2013-12-04 03:12:00,52.5,51.0,29.96,WSW,244,0.0,0.0,95,0.01,,,0.06,weatherlink.com 1.10,2013-12-04 08:12:00,
2013-12-04 03:42:00,52.6,51.0,29.96,WSW,244,0.0,0.0,94,0.00,,,0.06,weatherlink.com 1.10,2013-12-04 08:42:00,
2013-12-04 03:57:00,52.6,51.0,29.95,WSW,244,0.0,0.0,94,0.00,,,0.06,weatherlink.com 1.10,2013-12-04 08:57:00,
2013-12-04 04:12:00,52.6,51.0,29.94,WSW,244,0.0,0.0,94,0.00,,,0.06,weatherlink.com 1.10,2013-12-04 09:12:00,
2013-12-04 04:27:00,52.6,51.0,29.94,SSW,200,0.0,0.0,94,0.00,,,0.06,weatherlink.com 1.10,2013-12-04 09:27:00,
2013-12-04 04:42:00,52.6,51.0,29.94,SSW,200,0.0,0.0,94,0.00,,,0.06,weatherlink.com 1.10,2013-12-04 09:42:00,
2013-12-04 04:57:00,52.6,51.0,29.94,SSW,200,0.0,0.0,94,0.00,,,0.06,weatherlink.com 1.10,2013-12-04 09:57:00,
2013-12-04 05:12:00,52.7,51.0,29.94,SSW,200,0.0,0.0,94,0.00,,,0.06,weatherlink.com 1.10,2013-12-04 10:12:00,
2013-12-04 05:27:00,52.7,51.0,29.96,West,266,0.0,0.0,94,0.00,,,0.06,weatherlink.com 1.10,2013-12-04 10:27:00,
2013-12-04 05:42:00,52.7,51.0,29.96,NNW,346,0.0,0.0,94,0.00,,,0.06,weatherlink.com 1.10,2013-12-04 10:42:00,
2013-12-04 05:57:00,52.8,51.0,29.97,NNW,346,0.0,0.0,94,0.00,,,0.06,weatherlink.com 1.10,2013-12-04 10:57:00,
2013-12-04 06:12:00,52.7,51.0,29.97,NNW,346,0.0,0.0,94,0.00,,,0.06,weatherlink.com 1.10,2013-12-04 11:12:00,
2013-12-04 06:27:00,52.7,51.0,29.98,NNE,18,0.0,0.0,94,0.00,,,0.06,weatherlink.com 1.10,2013-12-04 11:27:00,
2013-12-04 06:42:00,52.7,51.0,29.99,NNE,18,0.0,0.0,94,0.00,,,0.06,weatherlink.com 1.10,2013-12-04 11:42:00,
2013-12-04 06:57:00,52.7,51.0,29.99,NNE,19,0.0,2.0,94,0.01,,,0.07,weatherlink.com 1.10,2013-12-04 11:57:00,
2013-12-04 07:12:00,52.7,51.0,30.00,NNE,19,2.0,2.0,94,0.01,,,0.07,weatherlink.com 1.10,2013-12-04 12:12:00,
2013-12-04 07:27:00,52.7,51.0,30.00,NE,34,2.0,3.0,94,0.01,,,0.07,weatherlink.com 1.10,2013-12-04 12:27:00,
2013-12-04 07:42:00,52.7,51.0,30.00,NE,34,2.0,2.0,94,0.01,,,0.07,weatherlink.com 1.10,2013-12-04 12:42:00,
2013-12-04 07:57:00,52.7,51.0,30.00,NE,40,0.0,1.0,94,0.00,,,0.07,weatherlink.com 1.10,2013-12-04 12:57:00,
2013-12-04 08:12:00,52.8,51.0,30.00,ENE,66,1.0,2.0,94,0.01,,,0.08,weatherlink.com 1.10,2013-12-04 13:12:00,
2013-12-04 08:27:00,52.9,51.0,30.01,NE,48,0.0,2.0,94,0.01,,,0.08,weatherlink.com 1.10,2013-12-04 13:27:00,
2013-12-04 08:42:00,53.1,52.0,30.01,NE,40,0.0,3.0,94,0.01,,,0.08,weatherlink.com 1.10,2013-12-04 13:42:00,
2013-12-04 08:57:00,53.6,52.0,30.01,NE,39,1.0,4.0,94,0.01,,,0.08,weatherlink.com 1.10,2013-12-04 13:57:00,
2013-12-04 09:12:00,53.9,52.0,30.02,NE,39,0.0,1.0,94,0.00,,,0.08,weatherlink.com 1.10,2013-12-04 14:12:00,
2013-12-04 09:27:00,54.1,53.0,30.03,ENE,66,0.0,3.0,94,0.00,,,0.08,weatherlink.com 1.10,2013-12-04 14:27:00,
2013-12-04 09:42:00,54.5,53.0,30.04,ENE,66,0.0,2.0,94,0.00,,,0.08,weatherlink.com 1.10,2013-12-04 14:42:00,
2013-12-04 09:57:00,54.7,53.0,30.05,ENE,66,0.0,2.0,94,0.00,,,0.08,weatherlink.com 1.10,2013-12-04 14:57:00,
2013-12-04 10:12:00,54.9,53.0,30.05,NNE,30,0.0,2.0,94,0.00,,,0.08,weatherlink.com 1.10,2013-12-04 15:12:00,
2013-12-04 10:28:00,55.3,54.0,30.05,NNE,29,0.0,0.0,94,0.00,,,0.08,weatherlink.com 1.10,2013-12-04 15:28:00,
2013-12-04 10:43:00,56.2,55.0,30.05,NNE,30,1.0,2.0,94,0.00,,,0.08,weatherlink.com 1.10,2013-12-04 15:43:00,
2013-12-04 10:58:00,56.2,55.0,30.04,NW,324,1.0,3.0,94,0.00,,,0.08,weatherlink.com 1.10,2013-12-04 15:58:00,
2013-12-04 11:13:00,56.4,55.0,30.04,NNW,330,0.0,2.0,94,0.00,,,0.08,weatherlink.com 1.10,2013-12-04 16:13:00,
2013-12-04 11:28:00,56.6,55.0,30.04,NNW,331,0.0,1.0,94,0.00,,,0.08,weatherlink.com 1.10,2013-12-04 16:28:00,
2013-12-04 11:43:00,56.4,55.0,30.03,NNW,331,0.0,2.0,94,0.00,,,0.08,weatherlink.com 1.10,2013-12-04 16:43:00,
2013-12-04 11:58:00,56.9,55.0,30.03,NNW,330,0.0,2.0,94,0.00,,,0.08,weatherlink.com 1.10,2013-12-04 16:58:00,
2013-12-04 12:13:00,57.2,56.0,30.02,NNW,330,1.0,3.0,94,0.00,,,0.08,weatherlink.com 1.10,2013-12-04 17:13:00,
2013-12-04 12:28:00,57.6,56.0,30.01,NNE,19,2.0,2.0,94,0.00,,,0.08,weatherlink.com 1.10,2013-12-04 17:28:00,
2013-12-04 12:43:00,58.0,56.0,30.01,SSW,211,0.0,3.0,94,0.00,,,0.08,weatherlink.com 1.10,2013-12-04 17:43:00,
2013-12-04 12:58:00,58.0,57.0,30.00,SW,226,0.0,2.0,96,0.00,,,0.08,weatherlink.com 1.10,2013-12-04 17:58:00,
2013-12-04 13:13:00,58.2,57.0,29.99,SW,226,0.0,1.0,95,0.00,,,0.08,weatherlink.com 1.10,2013-12-04 18:13:00,
2013-12-04 13:28:00,58.9,58.0,29.99,SW,226,1.0,2.0,95,0.00,,,0.08,weatherlink.com 1.10,2013-12-04 18:28:00,
2013-12-04 13:43:00,59.1,58.0,29.98,West,271,0.0,2.0,95,0.00,,,0.08,weatherlink.com 1.10,2013-12-04 18:43:00,
2013-12-04 13:58:00,59.1,58.0,29.98,NW,313,0.0,2.0,95,0.00,,,0.08,weatherlink.com 1.10,2013-12-04 18:58:00,
2013-12-04 14:13:00,58.8,57.0,29.98,West,265,0.0,1.0,95,0.00,,,0.08,weatherlink.com 1.10,2013-12-04 19:13:00,
2013-12-04 14:28:00,59.0,58.0,29.98,WSW,254,1.0,4.0,95,0.00,,,0.08,weatherlink.com 1.10,2013-12-04 19:28:00,
2013-12-04 14:43:00,59.4,58.0,29.98,South,186,2.0,3.0,95,0.00,,,0.08,weatherlink.com 1.10,2013-12-04 19:43:00,
2013-12-04 14:58:00,59.4,58.0,29.98,SW,217,0.0,3.0,95,0.00,,,0.08,weatherlink.com 1.10,2013-12-04 19:58:00,
2013-12-04 15:29:00,59.0,58.0,29.99,SW,217,1.0,1.0,95,0.00,,,0.08,weatherlink.com 1.10,2013-12-04 20:29:00,
2013-12-04 15:43:00,58.9,58.0,29.99,SW,217,0.0,1.0,95,0.00,,,0.08,weatherlink.com 1.10,2013-12-04 20:43:00,
2013-12-04 15:58:00,59.0,58.0,29.99,South,190,0.0,2.0,95,0.00,,,0.08,weatherlink.com 1.10,2013-12-04 20:58:00,
2013-12-04 16:13:00,59.0,58.0,29.99,South,173,0.0,1.0,95,0.00,,,0.08,weatherlink.com 1.10,2013-12-04 21:13:00,
2013-12-04 16:28:00,59.1,58.0,30.00,ESE,117,0.0,1.0,95,0.00,,,0.08,weatherlink.com 1.10,2013-12-04 21:28:00,
2013-12-04 16:43:00,59.1,58.0,30.00,ESE,117,0.0,1.0,95,0.00,,,0.08,weatherlink.com 1.10,2013-12-04 21:43:00,
2013-12-04 16:58:00,59.1,58.0,30.00,ESE,117,0.0,1.0,95,0.00,,,0.08,weatherlink.com 1.10,2013-12-04 21:58:00,
2013-12-04 17:13:00,59.0,58.0,30.01,ESE,117,0.0,1.0,95,0.00,,,0.08,weatherlink.com 1.10,2013-12-04 22:13:00,
2013-12-04 17:28:00,58.9,58.0,30.01,ESE,117,0.0,0.0,95,0.00,,,0.08,weatherlink.com 1.10,2013-12-04 22:28:00,
2013-12-04 17:43:00,58.7,57.0,30.01,ESE,117,0.0,0.0,95,0.00,,,0.08,weatherlink.com 1.10,2013-12-04 22:43:00,
2013-12-04 17:59:00,58.4,57.0,30.01,SSW,207,0.0,3.0,95,0.00,,,0.08,weatherlink.com 1.10,2013-12-04 22:59:00,
2013-12-04 18:13:00,58.2,57.0,30.00,SSE,150,0.0,2.0,95,0.00,,,0.08,weatherlink.com 1.10,2013-12-04 23:13:00,
2013-12-04 18:28:00,58.0,57.0,30.01,East,90,0.0,3.0,95,0.00,,,0.08,weatherlink.com 1.10,2013-12-04 23:28:00,
2013-12-04 18:43:00,57.7,56.0,30.01,South,171,0.0,3.0,95,0.00,,,0.08,weatherlink.com 1.10,2013-12-04 23:43:00,
2013-12-04 18:58:00,57.6,56.0,30.00,SSE,166,1.0,3.0,95,0.00,,,0.08,weatherlink.com 1.10,2013-12-04 23:58:00,
2013-12-04 19:13:00,57.4,56.0,30.02,South,173,0.0,1.0,95,0.00,,,0.08,weatherlink.com 1.10,2013-12-05 00:13:00,
2013-12-04 19:28:00,57.5,56.0,30.02,South,173,0.0,0.0,95,0.00,,,0.08,weatherlink.com 1.10,2013-12-05 00:28:00,
2013-12-04 19:43:00,57.6,56.0,30.02,South,173,0.0,0.0,95,0.00,,,0.08,weatherlink.com 1.10,2013-12-05 00:43:00,
2013-12-04 19:58:00,57.8,56.0,30.02,South,173,0.0,0.0,94,0.00,,,0.08,weatherlink.com 1.10,2013-12-05 00:58:00,
2013-12-04 20:13:00,57.9,56.0,30.02,SW,215,0.0,3.0,94,0.00,,,0.08,weatherlink.com 1.10,2013-12-05 01:13:00,
2013-12-04 20:28:00,57.9,56.0,30.03,WNW,292,0.0,2.0,94,0.00,,,0.08,weatherlink.com 1.10,2013-12-05 01:28:00,
2013-12-04 20:43:00,58.0,56.0,30.03,SW,235,0.0,2.0,94,0.00,,,0.08,weatherlink.com 1.10,2013-12-05 01:43:00,
2013-12-04 20:58:00,58.3,57.0,30.03,SE,128,2.0,3.0,94,0.00,,,0.08,weatherlink.com 1.10,2013-12-05 01:58:00,
2013-12-04 21:13:00,58.8,57.0,30.03,South,190,1.0,2.0,94,0.00,,,0.08,weatherlink.com 1.10,2013-12-05 02:13:00,
2013-12-04 21:28:00,59.2,58.0,30.04,WSW,255,0.0,3.0,94,0.00,,,0.08,weatherlink.com 1.10,2013-12-05 02:28:00,
2013-12-04 21:43:00,59.4,58.0,30.03,SE,142,1.0,2.0,94,0.00,,,0.08,weatherlink.com 1.10,2013-12-05 02:43:00,
2013-12-04 21:58:00,59.5,58.0,30.04,South,190,2.0,3.0,94,0.00,,,0.08,weatherlink.com 1.10,2013-12-05 02:58:00,
2013-12-04 22:14:00,59.7,58.0,30.04,SSW,192,0.0,2.0,94,0.00,,,0.08,weatherlink.com 1.10,2013-12-05 03:14:00,
2013-12-04 22:29:00,59.7,58.0,30.04,South,183,1.0,3.0,94,0.00,,,0.08,weatherlink.com 1.10,2013-12-05 03:29:00,
2013-12-04 22:44:00,59.8,58.0,30.05,SSE,153,1.0,2.0,94,0.00,,,0.08,weatherlink.com 1.10,2013-12-05 03:44:00,
2013-12-04 22:59:00,60.0,58.0,30.05,SSW,195,1.0,4.0,94,0.00,,,0.08,weatherlink.com 1.10,2013-12-05 03:59:00,
2013-12-04 23:14:00,60.0,58.0,30.06,SSW,195,1.0,3.0,94,0.00,,,0.08,weatherlink.com 1.10,2013-12-05 04:14:00,
2013-12-04 23:29:00,60.2,59.0,30.06,SSW,204,0.0,3.0,94,0.00,,,0.08,weatherlink.com 1.10,2013-12-05 04:29:00,
2013-12-04 23:44:00,60.2,59.0,30.06,SW,234,0.0,3.0,94,0.00,,,0.08,weatherlink.com 1.10,2013-12-05 04:44:00,
2013-12-04 23:59:00,60.2,59.0,30.06,WSW,246,2.0,5.0,94,0.00,,,0.08,weatherlink.com 1.10,2013-12-05 04:59:00,